DIAP/ABJ METAR and TAF weather

Enter ICAO airport designator
Station Type Date Time Source
DIAP METAR 2023/02/06 18:30 UTC NOAA

DIAP 061830Z 25009KT 9999 FEW013 28/27 Q1009 NOSIG


Station Type Date Time Source
DIAP Decoded METAR 2023/02/06 18:30 UTC NOAA

Abidjan, Cote d'Ivoire (DIAP) 05-15N 003-56W 8M
Feb 06, 2023 - 01:30 PM EST / 2023.02.06 1830 UTC
Wind: from the WSW (250 degrees) at 10 MPH (9 KT):0
Visibility: greater than 7 mile(s):0
Sky conditions: mostly clear
Temperature: 82 F (28 C)
Dew Point: 80 F (27 C)
Relative Humidity: 94%
Pressure (altimeter): 29.80 in. Hg (1009 hPa)
ob: DIAP 061830Z 25009KT 9999 FEW013 28/27 Q1009 NOSIG
cycle: 18

Station Type Date Time Source
DIAP TAF 2023/02/06 18:48 UTC NOAA

TAF TAF DIAP 061742Z 0618/0724 25010KT 9999 FEW012 PROB40
TEMPO 0622/0701 BKN012 FEW020CB PROB30
TEMPO 0716/0722 TS BKN012 FEW020CB

Example: see airport list